sensor_id;sensor_type;location;lat;lon;timestamp;P1;durP1;ratioP1;P2;durP2;ratioP2
17796;SDS011;55596;53.554;9.916;2023-12-20T00:01:04;24.67;;;3.10;;
17796;SDS011;55596;53.554;9.916;2023-12-20T00:03:31;27.97;;;4.37;;
17796;SDS011;55596;53.554;9.916;2023-12-20T00:05:58;27.17;;;3.37;;
17796;SDS011;55596;53.554;9.916;2023-12-20T00:08:25;26.67;;;3.00;;
17796;SDS011;55596;53.554;9.916;2023-12-20T00:10:52;26.47;;;3.03;;
17796;SDS011;55596;53.554;9.916;2023-12-20T00:13:19;25.67;;;3.47;;
17796;SDS011;55596;53.554;9.916;2023-12-20T00:15:47;25.77;;;3.50;;
17796;SDS011;55596;53.554;9.916;2023-12-20T00:18:14;23.43;;;3.30;;
17796;SDS011;55596;53.554;9.916;2023-12-20T00:20:41;31.83;;;4.80;;
17796;SDS011;55596;53.554;9.916;2023-12-20T00:23:08;25.63;;;3.17;;
17796;SDS011;55596;53.554;9.916;2023-12-20T00:25:35;25.57;;;3.50;;
17796;SDS011;55596;53.554;9.916;2023-12-20T00:28:02;30.20;;;3.83;;
17796;SDS011;55596;53.554;9.916;2023-12-20T00:30:29;28.70;;;3.77;;
17796;SDS011;55596;53.554;9.916;2023-12-20T00:32:58;23.27;;;4.17;;
17796;SDS011;55596;53.554;9.916;2023-12-20T00:35:25;30.23;;;3.37;;
17796;SDS011;55596;53.554;9.916;2023-12-20T00:37:52;27.53;;;3.53;;
17796;SDS011;55596;53.554;9.916;2023-12-20T00:40:19;24.87;;;3.83;;
17796;SDS011;55596;53.554;9.916;2023-12-20T00:42:47;28.63;;;4.30;;
17796;SDS011;55596;53.554;9.916;2023-12-20T00:45:14;26.87;;;3.53;;
17796;SDS011;55596;53.554;9.916;2023-12-20T00:47:41;20.17;;;3.10;;
17796;SDS011;55596;53.554;9.916;2023-12-20T00:50:09;17.70;;;3.27;;
17796;SDS011;55596;53.554;9.916;2023-12-20T00:52:37;23.73;;;2.83;;
17796;SDS011;55596;53.554;9.916;2023-12-20T00:55:04;30.53;;;3.13;;
17796;SDS011;55596;53.554;9.916;2023-12-20T00:57:31;30.70;;;3.47;;
17796;SDS011;55596;53.554;9.916;2023-12-20T00:59:58;27.48;;;4.00;;
17796;SDS011;55596;53.554;9.916;2023-12-20T01:02:25;25.43;;;3.73;;
17796;SDS011;55596;53.554;9.916;2023-12-20T01:04:52;29.70;;;3.50;;
17796;SDS011;55596;53.554;9.916;2023-12-20T01:07:21;25.23;;;3.37;;
17796;SDS011;55596;53.554;9.916;2023-12-20T01:09:48;19.20;;;3.10;;
17796;SDS011;55596;53.554;9.916;2023-12-20T01:12:15;26.73;;;3.33;;
17796;SDS011;55596;53.554;9.916;2023-12-20T01:14:42;23.07;;;3.23;;
17796;SDS011;55596;53.554;9.916;2023-12-20T01:17:09;18.23;;;3.30;;
17796;SDS011;55596;53.554;9.916;2023-12-20T01:19:36;21.97;;;3.57;;
17796;SDS011;55596;53.554;9.916;2023-12-20T01:22:03;24.43;;;3.17;;
17796;SDS011;55596;53.554;9.916;2023-12-20T01:24:31;21.50;;;2.93;;
17796;SDS011;55596;53.554;9.916;2023-12-20T01:26:58;27.90;;;4.93;;
17796;SDS011;55596;53.554;9.916;2023-12-20T01:29:25;17.77;;;3.00;;
17796;SDS011;55596;53.554;9.916;2023-12-20T01:31:52;24.60;;;3.27;;
17796;SDS011;55596;53.554;9.916;2023-12-20T01:34:19;26.20;;;3.53;;
17796;SDS011;55596;53.554;9.916;2023-12-20T01:36:46;31.43;;;3.90;;
17796;SDS011;55596;53.554;9.916;2023-12-20T01:39:13;31.83;;;3.77;;
17796;SDS011;55596;53.554;9.916;2023-12-20T01:41:42;26.33;;;3.50;;
17796;SDS011;55596;53.554;9.916;2023-12-20T01:44:09;28.30;;;4.03;;
17796;SDS011;55596;53.554;9.916;2023-12-20T01:46:36;25.50;;;3.33;;
17796;SDS011;55596;53.554;9.916;2023-12-20T01:49:03;37.03;;;3.97;;
17796;SDS011;55596;53.554;9.916;2023-12-20T01:51:30;24.27;;;3.40;;
17796;SDS011;55596;53.554;9.916;2023-12-20T01:53:57;28.43;;;3.30;;
17796;SDS011;55596;53.554;9.916;2023-12-20T01:56:24;29.10;;;3.80;;
17796;SDS011;55596;53.554;9.916;2023-12-20T01:58:53;20.07;;;2.90;;
17796;SDS011;55596;53.554;9.916;2023-12-20T02:01:20;31.43;;;3.57;;
17796;SDS011;55596;53.554;9.916;2023-12-20T02:03:48;27.67;;;4.27;;
17796;SDS011;55596;53.554;9.916;2023-12-20T02:06:15;26.07;;;3.57;;
17796;SDS011;55596;53.554;9.916;2023-12-20T02:08:42;19.97;;;3.23;;
17796;SDS011;55596;53.554;9.916;2023-12-20T02:11:10;23.37;;;3.30;;
17796;SDS011;55596;53.554;9.916;2023-12-20T02:13:37;28.23;;;4.43;;
17796;SDS011;55596;53.554;9.916;2023-12-20T02:16:05;27.00;;;3.00;;
17796;SDS011;55596;53.554;9.916;2023-12-20T02:18:33;29.37;;;3.53;;
17796;SDS011;55596;53.554;9.916;2023-12-20T02:21:00;24.83;;;2.70;;
17796;SDS011;55596;53.554;9.916;2023-12-20T02:23:28;26.80;;;3.13;;
17796;SDS011;55596;53.554;9.916;2023-12-20T02:25:55;22.13;;;3.50;;
17796;SDS011;55596;53.554;9.916;2023-12-20T02:28:22;19.30;;;3.27;;
17796;SDS011;55596;53.554;9.916;2023-12-20T02:30:49;22.03;;;3.47;;
17796;SDS011;55596;53.554;9.916;2023-12-20T02:33:16;19.80;;;3.20;;
17796;SDS011;55596;53.554;9.916;2023-12-20T02:35:43;24.77;;;3.20;;
17796;SDS011;55596;53.554;9.916;2023-12-20T02:38:10;24.30;;;2.80;;
17796;SDS011;55596;53.554;9.916;2023-12-20T02:40:39;28.97;;;3.47;;
17796;SDS011;55596;53.554;9.916;2023-12-20T02:43:06;19.57;;;3.27;;
17796;SDS011;55596;53.554;9.916;2023-12-20T02:45:33;19.10;;;2.90;;
17796;SDS011;55596;53.554;9.916;2023-12-20T02:48:00;26.17;;;3.60;;
17796;SDS011;55596;53.554;9.916;2023-12-20T02:50:27;20.67;;;3.33;;
17796;SDS011;55596;53.554;9.916;2023-12-20T02:52:54;16.00;;;3.30;;
17796;SDS011;55596;53.554;9.916;2023-12-20T02:55:21;18.87;;;3.00;;
17796;SDS011;55596;53.554;9.916;2023-12-20T02:57:49;19.20;;;3.00;;
17796;SDS011;55596;53.554;9.916;2023-12-20T03:00:17;27.53;;;3.73;;
17796;SDS011;55596;53.554;9.916;2023-12-20T03:02:44;22.50;;;3.17;;
17796;SDS011;55596;53.554;9.916;2023-12-20T03:05:11;19.57;;;3.43;;
17796;SDS011;55596;53.554;9.916;2023-12-20T03:07:38;24.37;;;3.80;;
17796;SDS011;55596;53.554;9.916;2023-12-20T03:10:05;28.27;;;3.50;;
17796;SDS011;55596;53.554;9.916;2023-12-20T03:12:34;18.37;;;3.20;;
17796;SDS011;55596;53.554;9.916;2023-12-20T03:15:02;24.03;;;3.53;;
17796;SDS011;55596;53.554;9.916;2023-12-20T03:17:29;17.53;;;3.40;;
17796;SDS011;55596;53.554;9.916;2023-12-20T03:19:56;22.33;;;3.40;;
17796;SDS011;55596;53.554;9.916;2023-12-20T03:22:23;22.27;;;3.37;;
17796;SDS011;55596;53.554;9.916;2023-12-20T03:24:50;24.37;;;3.40;;
17796;SDS011;55596;53.554;9.916;2023-12-20T03:27:17;18.03;;;3.20;;
17796;SDS011;55596;53.554;9.916;2023-12-20T03:29:44;26.80;;;3.77;;
17796;SDS011;55596;53.554;9.916;2023-12-20T03:32:13;38.97;;;5.57;;
17796;SDS011;55596;53.554;9.916;2023-12-20T03:34:40;19.53;;;3.90;;
17796;SDS011;55596;53.554;9.916;2023-12-20T03:37:07;18.50;;;3.17;;
17796;SDS011;55596;53.554;9.916;2023-12-20T03:39:34;24.20;;;3.67;;
17796;SDS011;55596;53.554;9.916;2023-12-20T03:42:01;15.37;;;3.60;;
17796;SDS011;55596;53.554;9.916;2023-12-20T03:44:28;19.50;;;3.20;;
17796;SDS011;55596;53.554;9.916;2023-12-20T03:46:55;14.60;;;2.83;;
17796;SDS011;55596;53.554;9.916;2023-12-20T03:49:24;17.73;;;2.77;;
17796;SDS011;55596;53.554;9.916;2023-12-20T03:51:51;17.00;;;2.97;;
17796;SDS011;55596;53.554;9.916;2023-12-20T03:54:18;19.90;;;2.80;;
17796;SDS011;55596;53.554;9.916;2023-12-20T03:56:45;18.93;;;3.67;;
17796;SDS011;55596;53.554;9.916;2023-12-20T03:59:12;23.93;;;3.47;;
17796;SDS011;55596;53.554;9.916;2023-12-20T04:01:40;23.23;;;3.10;;
17796;SDS011;55596;53.554;9.916;2023-12-20T04:04:09;22.90;;;2.83;;
17796;SDS011;55596;53.554;9.916;2023-12-20T04:06:38;10.23;;;2.90;;
17796;SDS011;55596;53.554;9.916;2023-12-20T04:09:05;20.13;;;3.00;;
17796;SDS011;55596;53.554;9.916;2023-12-20T04:11:34;21.13;;;2.70;;
17796;SDS011;55596;53.554;9.916;2023-12-20T04:14:01;15.07;;;2.83;;
17796;SDS011;55596;53.554;9.916;2023-12-20T04:16:29;13.80;;;2.33;;
17796;SDS011;55596;53.554;9.916;2023-12-20T04:18:56;19.57;;;2.80;;
17796;SDS011;55596;53.554;9.916;2023-12-20T04:21:23;20.67;;;3.30;;
17796;SDS011;55596;53.554;9.916;2023-12-20T04:23:52;19.53;;;3.60;;
17796;SDS011;55596;53.554;9.916;2023-12-20T04:26:19;15.77;;;2.37;;
17796;SDS011;55596;53.554;9.916;2023-12-20T04:28:46;18.50;;;2.80;;
17796;SDS011;55596;53.554;9.916;2023-12-20T04:31:13;16.77;;;2.77;;
17796;SDS011;55596;53.554;9.916;2023-12-20T04:33:40;16.00;;;3.50;;
17796;SDS011;55596;53.554;9.916;2023-12-20T04:36:07;18.23;;;3.00;;
17796;SDS011;55596;53.554;9.916;2023-12-20T04:38:35;19.67;;;2.93;;
17796;SDS011;55596;53.554;9.916;2023-12-20T04:41:03;15.57;;;2.20;;
17796;SDS011;55596;53.554;9.916;2023-12-20T04:43:30;13.30;;;2.87;;
17796;SDS011;55596;53.554;9.916;2023-12-20T04:45:57;24.83;;;3.17;;
17796;SDS011;55596;53.554;9.916;2023-12-20T04:48:24;28.57;;;3.03;;
17796;SDS011;55596;53.554;9.916;2023-12-20T04:50:51;13.43;;;2.20;;
17796;SDS011;55596;53.554;9.916;2023-12-20T04:53:18;11.10;;;2.33;;
17796;SDS011;55596;53.554;9.916;2023-12-20T04:55:45;18.90;;;3.20;;
17796;SDS011;55596;53.554;9.916;2023-12-20T04:58:13;15.30;;;3.00;;
17796;SDS011;55596;53.554;9.916;2023-12-20T05:00:40;21.10;;;3.13;;
17796;SDS011;55596;53.554;9.916;2023-12-20T05:03:07;20.00;;;3.10;;
17796;SDS011;55596;53.554;9.916;2023-12-20T05:05:35;21.57;;;3.60;;
17796;SDS011;55596;53.554;9.916;2023-12-20T05:08:02;25.40;;;4.23;;
17796;SDS011;55596;53.554;9.916;2023-12-20T05:10:30;21.07;;;2.70;;
17796;SDS011;55596;53.554;9.916;2023-12-20T05:12:57;17.30;;;4.40;;
17796;SDS011;55596;53.554;9.916;2023-12-20T05:15:25;14.73;;;3.07;;
17796;SDS011;55596;53.554;9.916;2023-12-20T05:17:52;24.43;;;4.17;;
17796;SDS011;55596;53.554;9.916;2023-12-20T05:20:19;20.67;;;3.43;;
17796;SDS011;55596;53.554;9.916;2023-12-20T05:22:46;25.93;;;3.40;;
17796;SDS011;55596;53.554;9.916;2023-12-20T05:25:13;11.83;;;2.47;;
17796;SDS011;55596;53.554;9.916;2023-12-20T05:27:40;15.73;;;3.37;;
17796;SDS011;55596;53.554;9.916;2023-12-20T05:30:07;24.03;;;3.80;;
17796;SDS011;55596;53.554;9.916;2023-12-20T05:32:36;17.47;;;2.93;;
17796;SDS011;55596;53.554;9.916;2023-12-20T05:35:03;15.03;;;2.70;;
17796;SDS011;55596;53.554;9.916;2023-12-20T05:37:30;21.30;;;3.53;;
17796;SDS011;55596;53.554;9.916;2023-12-20T05:39:57;14.67;;;2.63;;
17796;SDS011;55596;53.554;9.916;2023-12-20T05:42:24;17.23;;;3.13;;
17796;SDS011;55596;53.554;9.916;2023-12-20T05:44:51;21.90;;;3.70;;
17796;SDS011;55596;53.554;9.916;2023-12-20T05:47:18;15.07;;;3.17;;
17796;SDS011;55596;53.554;9.916;2023-12-20T05:49:46;25.37;;;3.70;;
17796;SDS011;55596;53.554;9.916;2023-12-20T05:52:15;21.40;;;3.37;;
17796;SDS011;55596;53.554;9.916;2023-12-20T05:54:42;15.50;;;3.50;;
17796;SDS011;55596;53.554;9.916;2023-12-20T05:57:09;19.40;;;3.60;;
17796;SDS011;55596;53.554;9.916;2023-12-20T05:59:36;20.27;;;3.03;;
17796;SDS011;55596;53.554;9.916;2023-12-20T06:02:03;22.10;;;3.27;;
17796;SDS011;55596;53.554;9.916;2023-12-20T06:04:30;17.17;;;3.03;;
17796;SDS011;55596;53.554;9.916;2023-12-20T06:06:58;24.83;;;4.00;;
17796;SDS011;55596;53.554;9.916;2023-12-20T06:09:26;21.53;;;3.60;;
17796;SDS011;55596;53.554;9.916;2023-12-20T06:11:53;21.87;;;3.60;;
17796;SDS011;55596;53.554;9.916;2023-12-20T06:14:20;17.73;;;3.17;;
17796;SDS011;55596;53.554;9.916;2023-12-20T06:16:47;25.57;;;4.00;;
17796;SDS011;55596;53.554;9.916;2023-12-20T06:19:14;16.67;;;3.17;;
17796;SDS011;55596;53.554;9.916;2023-12-20T06:21:41;20.53;;;3.60;;
17796;SDS011;55596;53.554;9.916;2023-12-20T06:24:10;30.10;;;4.57;;
17796;SDS011;55596;53.554;9.916;2023-12-20T06:26:37;24.67;;;3.67;;
17796;SDS011;55596;53.554;9.916;2023-12-20T06:29:04;17.40;;;3.10;;
17796;SDS011;55596;53.554;9.916;2023-12-20T06:31:31;19.67;;;2.83;;
17796;SDS011;55596;53.554;9.916;2023-12-20T06:33:58;19.77;;;3.33;;
17796;SDS011;55596;53.554;9.916;2023-12-20T06:36:25;19.23;;;2.93;;
17796;SDS011;55596;53.554;9.916;2023-12-20T06:38:52;17.23;;;3.40;;
17796;SDS011;55596;53.554;9.916;2023-12-20T06:41:21;22.80;;;3.70;;
17796;SDS011;55596;53.554;9.916;2023-12-20T06:43:49;17.23;;;3.03;;
17796;SDS011;55596;53.554;9.916;2023-12-20T06:46:16;21.33;;;3.07;;
17796;SDS011;55596;53.554;9.916;2023-12-20T06:48:43;17.33;;;3.10;;
17796;SDS011;55596;53.554;9.916;2023-12-20T06:51:11;19.50;;;3.20;;
17796;SDS011;55596;53.554;9.916;2023-12-20T06:53:39;20.30;;;2.97;;
17796;SDS011;55596;53.554;9.916;2023-12-20T06:56:06;15.37;;;3.27;;
17796;SDS011;55596;53.554;9.916;2023-12-20T06:58:35;23.13;;;3.60;;
17796;SDS011;55596;53.554;9.916;2023-12-20T07:01:02;18.07;;;3.23;;
17796;SDS011;55596;53.554;9.916;2023-12-20T07:03:30;22.60;;;3.27;;
17796;SDS011;55596;53.554;9.916;2023-12-20T07:05:57;17.33;;;3.63;;
17796;SDS011;55596;53.554;9.916;2023-12-20T07:08:24;16.97;;;3.00;;
17796;SDS011;55596;53.554;9.916;2023-12-20T07:10:51;27.10;;;3.77;;
17796;SDS011;55596;53.554;9.916;2023-12-20T07:13:19;26.30;;;3.37;;
17796;SDS011;55596;53.554;9.916;2023-12-20T07:15:48;26.73;;;3.97;;
17796;SDS011;55596;53.554;9.916;2023-12-20T07:18:15;25.43;;;3.93;;
17796;SDS011;55596;53.554;9.916;2023-12-20T07:20:42;23.27;;;3.67;;
17796;SDS011;55596;53.554;9.916;2023-12-20T07:23:09;21.43;;;3.70;;
17796;SDS011;55596;53.554;9.916;2023-12-20T07:25:36;27.97;;;4.07;;
17796;SDS011;55596;53.554;9.916;2023-12-20T07:28:03;24.90;;;5.13;;
17796;SDS011;55596;53.554;9.916;2023-12-20T07:30:31;24.40;;;3.83;;
17796;SDS011;55596;53.554;9.916;2023-12-20T07:32:59;24.00;;;3.77;;
17796;SDS011;55596;53.554;9.916;2023-12-20T07:35:27;19.90;;;3.57;;
17796;SDS011;55596;53.554;9.916;2023-12-20T07:37:54;29.77;;;3.83;;
17796;SDS011;55596;53.554;9.916;2023-12-20T07:40:21;25.83;;;4.23;;
17796;SDS011;55596;53.554;9.916;2023-12-20T07:42:48;22.60;;;3.70;;
17796;SDS011;55596;53.554;9.916;2023-12-20T07:45:15;21.43;;;4.13;;
17796;SDS011;55596;53.554;9.916;2023-12-20T07:47:43;15.67;;;3.50;;
17796;SDS011;55596;53.554;9.916;2023-12-20T07:50:11;21.40;;;3.93;;
17796;SDS011;55596;53.554;9.916;2023-12-20T07:52:38;23.27;;;4.30;;
17796;SDS011;55596;53.554;9.916;2023-12-20T07:55:05;16.80;;;3.20;;
17796;SDS011;55596;53.554;9.916;2023-12-20T07:57:33;26.73;;;4.27;;
17796;SDS011;55596;53.554;9.916;2023-12-20T08:00:00;17.60;;;3.40;;
17796;SDS011;55596;53.554;9.916;2023-12-20T08:02:28;22.50;;;5.07;;
17796;SDS011;55596;53.554;9.916;2023-12-20T08:04:55;20.60;;;4.13;;
17796;SDS011;55596;53.554;9.916;2023-12-20T08:07:24;26.13;;;3.80;;
17796;SDS011;55596;53.554;9.916;2023-12-20T08:09:51;28.97;;;3.53;;
17796;SDS011;55596;53.554;9.916;2023-12-20T08:12:19;16.73;;;3.13;;
17796;SDS011;55596;53.554;9.916;2023-12-20T08:14:46;21.90;;;4.07;;
17796;SDS011;55596;53.554;9.916;2023-12-20T08:17:14;22.80;;;3.90;;
17796;SDS011;55596;53.554;9.916;2023-12-20T08:19:43;21.73;;;4.23;;
17796;SDS011;55596;53.554;9.916;2023-12-20T08:22:10;27.30;;;4.30;;
17796;SDS011;55596;53.554;9.916;2023-12-20T08:24:39;22.73;;;4.10;;
17796;SDS011;55596;53.554;9.916;2023-12-20T08:27:06;17.90;;;3.67;;
17796;SDS011;55596;53.554;9.916;2023-12-20T08:29:34;19.00;;;3.30;;
17796;SDS011;55596;53.554;9.916;2023-12-20T08:32:01;21.43;;;3.63;;
17796;SDS011;55596;53.554;9.916;2023-12-20T08:34:29;18.97;;;3.00;;
17796;SDS011;55596;53.554;9.916;2023-12-20T08:36:56;24.57;;;4.00;;
17796;SDS011;55596;53.554;9.916;2023-12-20T08:39:23;18.40;;;3.40;;
17796;SDS011;55596;53.554;9.916;2023-12-20T08:41:52;18.07;;;3.13;;
17796;SDS011;55596;53.554;9.916;2023-12-20T08:44:19;25.20;;;3.70;;
17796;SDS011;55596;53.554;9.916;2023-12-20T08:46:47;20.00;;;4.10;;
17796;SDS011;55596;53.554;9.916;2023-12-20T08:49:14;26.50;;;3.37;;
17796;SDS011;55596;53.554;9.916;2023-12-20T08:51:42;18.33;;;3.43;;
17796;SDS011;55596;53.554;9.916;2023-12-20T08:54:09;23.60;;;3.70;;
17796;SDS011;55596;53.554;9.916;2023-12-20T08:56:38;17.60;;;3.23;;
17796;SDS011;55596;53.554;9.916;2023-12-20T08:59:06;21.07;;;3.10;;
17796;SDS011;55596;53.554;9.916;2023-12-20T09:01:34;16.50;;;3.00;;
17796;SDS011;55596;53.554;9.916;2023-12-20T09:04:01;17.07;;;3.17;;
17796;SDS011;55596;53.554;9.916;2023-12-20T09:06:28;17.13;;;3.03;;
17796;SDS011;55596;53.554;9.916;2023-12-20T09:08:55;17.57;;;3.30;;
17796;SDS011;55596;53.554;9.916;2023-12-20T09:11:22;14.00;;;2.90;;
17796;SDS011;55596;53.554;9.916;2023-12-20T09:13:49;15.73;;;3.00;;
17796;SDS011;55596;53.554;9.916;2023-12-20T09:16:17;22.60;;;3.97;;
17796;SDS011;55596;53.554;9.916;2023-12-20T09:18:44;13.80;;;2.90;;
17796;SDS011;55596;53.554;9.916;2023-12-20T09:21:11;18.27;;;3.20;;
17796;SDS011;55596;53.554;9.916;2023-12-20T09:23:38;18.77;;;2.73;;
17796;SDS011;55596;53.554;9.916;2023-12-20T09:26:06;17.17;;;2.13;;
17796;SDS011;55596;53.554;9.916;2023-12-20T09:28:33;17.90;;;3.37;;
17796;SDS011;55596;53.554;9.916;2023-12-20T09:31:02;14.47;;;2.47;;
17796;SDS011;55596;53.554;9.916;2023-12-20T09:33:30;8.73;;;1.63;;
17796;SDS011;55596;53.554;9.916;2023-12-20T09:35:57;7.90;;;1.57;;
17796;SDS011;55596;53.554;9.916;2023-12-20T09:38:24;8.63;;;1.20;;
17796;SDS011;55596;53.554;9.916;2023-12-20T09:40:51;7.90;;;1.07;;
17796;SDS011;55596;53.554;9.916;2023-12-20T09:43:19;1.50;;;0.57;;
17796;SDS011;55596;53.554;9.916;2023-12-20T09:45:47;2.80;;;0.93;;
17796;SDS011;55596;53.554;9.916;2023-12-20T09:48:14;2.40;;;0.53;;
17796;SDS011;55596;53.554;9.916;2023-12-20T09:50:46;1.93;;;0.70;;
17796;SDS011;55596;53.554;9.916;2023-12-20T09:53:15;1.97;;;0.60;;
17796;SDS011;55596;53.554;9.916;2023-12-20T09:55:42;2.07;;;0.80;;
17796;SDS011;55596;53.554;9.916;2023-12-20T09:58:09;3.47;;;0.60;;
17796;SDS011;55596;53.554;9.916;2023-12-20T10:00:37;1.43;;;0.70;;
17796;SDS011;55596;53.554;9.916;2023-12-20T10:03:04;5.80;;;1.17;;
17796;SDS011;55596;53.554;9.916;2023-12-20T10:05:33;4.53;;;0.73;;
17796;SDS011;55596;53.554;9.916;2023-12-20T10:08:02;5.40;;;0.67;;
17796;SDS011;55596;53.554;9.916;2023-12-20T10:10:29;3.17;;;0.50;;
17796;SDS011;55596;53.554;9.916;2023-12-20T10:13:03;1.63;;;0.43;;
17796;SDS011;55596;53.554;9.916;2023-12-20T10:15:30;1.50;;;0.40;;
17796;SDS011;55596;53.554;9.916;2023-12-20T10:17:57;1.43;;;0.60;;
17796;SDS011;55596;53.554;9.916;2023-12-20T10:20:25;4.77;;;0.60;;
17796;SDS011;55596;53.554;9.916;2023-12-20T10:22:53;3.33;;;0.53;;
17796;SDS011;55596;53.554;9.916;2023-12-20T10:25:22;4.43;;;0.90;;
17796;SDS011;55596;53.554;9.916;2023-12-20T10:27:50;2.27;;;0.60;;
17796;SDS011;55596;53.554;9.916;2023-12-20T10:30:17;5.30;;;0.70;;
17796;SDS011;55596;53.554;9.916;2023-12-20T10:32:44;4.63;;;0.90;;
17796;SDS011;55596;53.554;9.916;2023-12-20T10:35:11;5.20;;;1.07;;
17796;SDS011;55596;53.554;9.916;2023-12-20T10:37:38;5.77;;;1.03;;
17796;SDS011;55596;53.554;9.916;2023-12-20T10:40:06;2.37;;;0.80;;
17796;SDS011;55596;53.554;9.916;2023-12-20T10:42:34;6.67;;;0.87;;
17796;SDS011;55596;53.554;9.916;2023-12-20T10:45:02;7.50;;;1.13;;
17796;SDS011;55596;53.554;9.916;2023-12-20T10:47:32;6.03;;;1.07;;
17796;SDS011;55596;53.554;9.916;2023-12-20T10:49:59;9.47;;;1.47;;
17796;SDS011;55596;53.554;9.916;2023-12-20T10:52:27;10.07;;;1.33;;
17796;SDS011;55596;53.554;9.916;2023-12-20T10:54:54;6.00;;;1.00;;
17796;SDS011;55596;53.554;9.916;2023-12-20T10:57:21;10.90;;;1.97;;
17796;SDS011;55596;53.554;9.916;2023-12-20T10:59:50;12.37;;;1.43;;
17796;SDS011;55596;53.554;9.916;2023-12-20T11:02:21;9.07;;;1.27;;
17796;SDS011;55596;53.554;9.916;2023-12-20T11:04:50;9.57;;;1.77;;
17796;SDS011;55596;53.554;9.916;2023-12-20T11:07:21;7.37;;;0.97;;
17796;SDS011;55596;53.554;9.916;2023-12-20T11:09:54;8.30;;;1.20;;
17796;SDS011;55596;53.554;9.916;2023-12-20T11:12:26;12.23;;;1.50;;
17796;SDS011;55596;53.554;9.916;2023-12-20T11:14:56;9.03;;;1.77;;
17796;SDS011;55596;53.554;9.916;2023-12-20T11:17:27;7.47;;;1.57;;
17796;SDS011;55596;53.554;9.916;2023-12-20T11:20:04;11.23;;;1.50;;
17796;SDS011;55596;53.554;9.916;2023-12-20T11:22:32;6.10;;;1.23;;
17796;SDS011;55596;53.554;9.916;2023-12-20T11:25:02;9.30;;;1.60;;
17796;SDS011;55596;53.554;9.916;2023-12-20T11:27:30;9.73;;;1.67;;
17796;SDS011;55596;53.554;9.916;2023-12-20T11:29:58;10.00;;;1.70;;
17796;SDS011;55596;53.554;9.916;2023-12-20T11:32:28;7.63;;;2.03;;
17796;SDS011;55596;53.554;9.916;2023-12-20T11:34:56;14.07;;;1.93;;
17796;SDS011;55596;53.554;9.916;2023-12-20T11:37:28;13.93;;;2.20;;
17796;SDS011;55596;53.554;9.916;2023-12-20T11:39:59;10.40;;;1.63;;
17796;SDS011;55596;53.554;9.916;2023-12-20T11:42:27;10.70;;;1.67;;
17796;SDS011;55596;53.554;9.916;2023-12-20T11:44:54;8.23;;;2.20;;
17796;SDS011;55596;53.554;9.916;2023-12-20T11:47:24;9.07;;;1.77;;
17796;SDS011;55596;53.554;9.916;2023-12-20T11:49:51;10.60;;;1.80;;
17796;SDS011;55596;53.554;9.916;2023-12-20T11:52:18;9.23;;;2.07;;
17796;SDS011;55596;53.554;9.916;2023-12-20T11:54:45;18.07;;;2.53;;
17796;SDS011;55596;53.554;9.916;2023-12-20T11:57:12;10.23;;;1.80;;
17796;SDS011;55596;53.554;9.916;2023-12-20T11:59:39;17.30;;;2.40;;
17796;SDS011;55596;53.554;9.916;2023-12-20T12:02:07;18.00;;;2.80;;
17796;SDS011;55596;53.554;9.916;2023-12-20T12:04:35;10.17;;;2.37;;
17796;SDS011;55596;53.554;9.916;2023-12-20T12:07:02;15.70;;;2.93;;
17796;SDS011;55596;53.554;9.916;2023-12-20T12:09:29;12.60;;;2.47;;
17796;SDS011;55596;53.554;9.916;2023-12-20T12:11:56;14.33;;;2.83;;
17796;SDS011;55596;53.554;9.916;2023-12-20T12:14:23;12.63;;;2.30;;
17796;SDS011;55596;53.554;9.916;2023-12-20T12:16:51;16.80;;;2.60;;
17796;SDS011;55596;53.554;9.916;2023-12-20T12:19:21;12.00;;;2.53;;
17796;SDS011;55596;53.554;9.916;2023-12-20T12:21:50;17.93;;;2.60;;
17796;SDS011;55596;53.554;9.916;2023-12-20T12:24:19;19.17;;;3.13;;
17796;SDS011;55596;53.554;9.916;2023-12-20T12:26:49;17.13;;;2.50;;
17796;SDS011;55596;53.554;9.916;2023-12-20T12:29:17;16.43;;;3.00;;
17796;SDS011;55596;53.554;9.916;2023-12-20T12:31:43;17.67;;;2.83;;
17796;SDS011;55596;53.554;9.916;2023-12-20T12:34:10;14.70;;;3.13;;
17796;SDS011;55596;53.554;9.916;2023-12-20T12:36:37;16.87;;;2.60;;
17796;SDS011;55596;53.554;9.916;2023-12-20T12:39:06;14.03;;;2.93;;
17796;SDS011;55596;53.554;9.916;2023-12-20T12:41:33;15.63;;;2.73;;
17796;SDS011;55596;53.554;9.916;2023-12-20T12:44:00;15.03;;;3.20;;
17796;SDS011;55596;53.554;9.916;2023-12-20T12:46:27;16.97;;;2.80;;
17796;SDS011;55596;53.554;9.916;2023-12-20T12:48:54;12.07;;;2.60;;
17796;SDS011;55596;53.554;9.916;2023-12-20T12:51:21;12.67;;;2.73;;
17796;SDS011;55596;53.554;9.916;2023-12-20T12:53:48;15.20;;;2.70;;
17796;SDS011;55596;53.554;9.916;2023-12-20T12:56:17;11.73;;;2.27;;
17796;SDS011;55596;53.554;9.916;2023-12-20T12:58:44;13.77;;;2.80;;
17796;SDS011;55596;53.554;9.916;2023-12-20T13:01:11;17.30;;;2.70;;
17796;SDS011;55596;53.554;9.916;2023-12-20T13:03:39;10.13;;;2.40;;
17796;SDS011;55596;53.554;9.916;2023-12-20T13:06:06;15.50;;;2.53;;
17796;SDS011;55596;53.554;9.916;2023-12-20T13:08:34;12.43;;;2.67;;
17796;SDS011;55596;53.554;9.916;2023-12-20T13:11:01;14.30;;;2.90;;
17796;SDS011;55596;53.554;9.916;2023-12-20T13:13:30;16.63;;;2.83;;
17796;SDS011;55596;53.554;9.916;2023-12-20T13:15:57;13.53;;;2.70;;
17796;SDS011;55596;53.554;9.916;2023-12-20T13:18:25;20.47;;;3.10;;
17796;SDS011;55596;53.554;9.916;2023-12-20T13:20:53;23.17;;;3.57;;
17796;SDS011;55596;53.554;9.916;2023-12-20T13:23:20;17.70;;;3.80;;
17796;SDS011;55596;53.554;9.916;2023-12-20T13:25:47;16.57;;;2.80;;
17796;SDS011;55596;53.554;9.916;2023-12-20T13:28:14;11.57;;;3.07;;
17796;SDS011;55596;53.554;9.916;2023-12-20T13:30:42;21.77;;;3.33;;
17796;SDS011;55596;53.554;9.916;2023-12-20T13:33:10;16.60;;;3.40;;
17796;SDS011;55596;53.554;9.916;2023-12-20T13:35:37;16.83;;;2.93;;
17796;SDS011;55596;53.554;9.916;2023-12-20T13:38:05;17.23;;;3.07;;
17796;SDS011;55596;53.554;9.916;2023-12-20T13:40:32;21.00;;;4.50;;
17796;SDS011;55596;53.554;9.916;2023-12-20T13:42:59;20.57;;;3.80;;
17796;SDS011;55596;53.554;9.916;2023-12-20T13:45:28;24.33;;;3.90;;
17796;SDS011;55596;53.554;9.916;2023-12-20T13:47:56;20.17;;;3.83;;
17796;SDS011;55596;53.554;9.916;2023-12-20T13:50:23;19.30;;;3.90;;
17796;SDS011;55596;53.554;9.916;2023-12-20T13:52:51;20.60;;;4.57;;
17796;SDS011;55596;53.554;9.916;2023-12-20T13:55:18;23.53;;;4.00;;
17796;SDS011;55596;53.554;9.916;2023-12-20T13:57:47;24.90;;;4.13;;
17796;SDS011;55596;53.554;9.916;2023-12-20T14:00:14;26.97;;;4.60;;
17796;SDS011;55596;53.554;9.916;2023-12-20T14:02:41;24.67;;;4.07;;
17796;SDS011;55596;53.554;9.916;2023-12-20T14:05:10;31.73;;;4.60;;
17796;SDS011;55596;53.554;9.916;2023-12-20T14:07:38;20.30;;;4.60;;
17796;SDS011;55596;53.554;9.916;2023-12-20T14:10:05;24.10;;;4.97;;
17796;SDS011;55596;53.554;9.916;2023-12-20T14:12:33;28.10;;;4.90;;
17796;SDS011;55596;53.554;9.916;2023-12-20T14:15:01;24.23;;;4.50;;
17796;SDS011;55596;53.554;9.916;2023-12-20T14:17:28;23.03;;;4.30;;
17796;SDS011;55596;53.554;9.916;2023-12-20T14:19:56;21.27;;;5.40;;
17796;SDS011;55596;53.554;9.916;2023-12-20T14:22:25;18.70;;;4.33;;
17796;SDS011;55596;53.554;9.916;2023-12-20T14:24:54;25.23;;;4.97;;
17796;SDS011;55596;53.554;9.916;2023-12-20T14:27:22;21.27;;;4.67;;
17796;SDS011;55596;53.554;9.916;2023-12-20T14:29:49;20.37;;;4.57;;
17796;SDS011;55596;53.554;9.916;2023-12-20T14:32:16;18.43;;;4.10;;
17796;SDS011;55596;53.554;9.916;2023-12-20T14:34:43;17.00;;;4.17;;
17796;SDS011;55596;53.554;9.916;2023-12-20T14:37:10;20.60;;;4.20;;